Boyd Deep Canyon Reserve, California Weather observations

Data are for 10 minute period ending at time listed.
 Day   Time   Solar   Ave.   Ave.  Ave.  Vector  Max.   Baro.   Total    
  of    of     Rad.   Air    Rel.  Wind   Wind   Wind  Press.  Precip.   
Year   Day            Temp.  Hum.  Speed  Dir.   Gust                    
2015   (PST)  Kw/m2    F      %     mph   deg.    mph    mb.     in.     
-------------------------------------------------------------------------
  59   17:00   0.03   60.2    37   11.7   197    25.2   973.5    0.00 
  59   17:10   0.03   59.8    39   12.3   178    26.6   973.5    0.00 
  59   17:20   0.01   59.4    40    9.8   180    21.6   973.9    0.00 
  59   17:30   0.01   59.1    40    8.6   146    17.3   974.1    0.00 
  59   17:40   0.01   59.0    40    5.3    89    14.9   974.2    0.00 
  59   17:50   0.00   58.7    42    7.3    84    12.7   974.4    0.00 
  59   18:00   0.00   58.7    41    9.4    47    16.4   974.5    0.00 
  59   18:10   0.00   58.5    41    8.5    75    18.2   974.7    0.00 
  59   18:20   0.00   58.7    41    7.0   118    14.0   974.8    0.00 
  59   18:30   0.00   58.6    40   10.4   148    17.4   974.7    0.00 
  59   18:40   0.00   58.7    39   11.2   147    21.5   974.6    0.00 
  59   18:50   0.00   58.6    40   11.9   173    18.3   974.7    0.00 
  59   19:00   0.00   58.2    42   10.7   178    19.4   974.8    0.00 
  59   19:10   0.00   57.9    44   17.7   174    26.5   974.8    0.00 
  59   19:20   0.00   57.8    43   16.0   178    24.0   974.8    0.00 
  59   19:30   0.00   57.7    44   17.7   176    24.6   974.9    0.00 
  59   19:40   0.00   57.5    45   15.9   174    24.6   975.0    0.00 
  59   19:50   0.00   57.5    45   17.4   174    26.6   975.2    0.00 
  59   20:00   0.00   57.2    46   18.0   175    25.9   975.3    0.00 
  59   20:10   0.00   56.8    46   16.3   178    23.5   975.4    0.00 
  59   20:20   0.00   56.5    47   15.8   172    24.0   975.4    0.00 
  59   20:30   0.00   56.3    48   18.6   175    28.2   975.4    0.00 
  59   20:40   0.00   56.3    48   17.2   176    25.0   975.5    0.00 
  59   20:50   0.00   56.0    49   15.4   180    24.8   975.7    0.00 
  59   21:00   0.00   56.2    48   19.5   208    29.2   975.9    0.00 
  59   21:10   0.00   56.0    50   13.8   204    24.2   975.9    0.00 
  59   21:20   0.00   55.7    50   12.7   176    21.8   975.9    0.00 
  59   21:30   0.00   55.9    50   12.8   185    20.5   976.0    0.00 
  59   21:40   0.00   56.0    50   13.8   180    23.8   975.9    0.00 
  59   21:50   0.00   56.0    50   16.0   175    23.8   975.9    0.00 
  59   22:00   0.00   55.8    50   12.8   179    19.4   976.0    0.00 
  59   22:10   0.00   55.8    48   12.2   193    26.5   976.0    0.00 
  59   22:20   0.00   55.9    46   11.1   208    19.7   976.0    0.00 
  59   22:30   0.00   55.8    45    8.2   180    19.4   976.0    0.00 
  59   22:40   0.00   55.7    45   11.8   182    18.9   976.0    0.00 
  59   22:50   0.00   55.6    46   11.8   189    20.3   976.3    0.00 
  59   23:00   0.00   55.7    44   11.5   182    16.7   976.3    0.00 
  59   23:10   0.00   56.0    43   13.6   183    20.0   976.3    0.00 
  59   23:20   0.00   56.1    43   10.5   192    15.3   976.3    0.00 
  59   23:30   0.00   56.2    42    9.3   188    20.0   976.5    0.00 
  59   23:40   0.00   56.3    42   11.1   198    17.8   976.5    0.00 
  59   23:50   0.00   56.3    43    9.8   180    15.9   976.4    0.00 
  60    0:00   0.00   56.2    44   12.1   181    18.4   976.3    0.00 
  60    0:10   0.00   56.4    43   10.1   186    18.9   976.3    0.00 
  60    0:20   0.00   56.6    43    8.7   181    15.6   976.3    0.00 
  60    0:30   0.00   56.7    43   11.4   176    16.4   976.3    0.00 
  60    0:40   0.00   56.6    44   11.5   173    16.7   976.4    0.00 
  60    0:50   0.00   56.6    45    9.3   186    16.8   976.5    0.00 
  60    1:00   0.00   56.6    45    7.9   194    13.8   976.6    0.00 
  60    1:10   0.00   56.7    45    7.3   206    12.8   976.7    0.00 
  60    1:20   0.00   56.6    46    7.7   194    13.2   976.8    0.00 
  60    1:30   0.00   56.3    47    9.2   170    14.2   976.9    0.00 
  60    1:40   0.00   56.4    47    8.8   193    14.7   976.8    0.00 
  60    1:50   0.00   56.3    48    8.6   181    17.6   976.9    0.00 
  60    2:00   0.00   56.1    49    9.5   201    15.2   976.9    0.00 
  60    2:10   0.00   56.2    48    8.9   202    16.6   976.9    0.00 
  60    2:20   0.00   56.3    49   11.5   211    18.9   976.9    0.00 
  60    2:30   0.00   56.2    49   13.9   201    22.4   976.8    0.00 
  60    2:40   0.00   56.5    48   13.4   199    21.8   977.0    0.00 
  60    2:50   0.00   56.3    48    9.0   178    14.7   976.9    0.00 
  60    3:00   0.00   56.2    48    7.6   180    13.2   976.9    0.00 
  60    3:10   0.00   56.2    48    6.4   174    12.7   976.9    0.00 
  60    3:20   0.00   56.2    48    3.9   214     9.8   976.7    0.00 
  60    3:30   0.00   55.9    48    5.1   220     8.1   976.5    0.00 
  60    3:40   0.00   56.0    48    2.6   220     7.5   976.6    0.00 
  60    3:50   0.00   56.0    48    2.8   164     7.7   976.7    0.00 
  60    4:00   0.00   56.0    48    2.2   107     6.5   976.7    0.00 
  60    4:10   0.00   55.4    50    2.8    96     5.6   976.7    0.00 
  60    4:20   0.00   54.0    56    4.3   354     8.4   976.8    0.00 
  60    4:30   0.00   53.8    56    1.8   352     4.9   976.7    0.00 
  60    4:40   0.00   53.8    56    0.9   212     3.4   976.7    0.00 
  60    4:50   0.00   53.9    56    1.6   167     2.9   976.8    0.00 
  60    5:00   0.00   54.0    55    1.1   179     2.7   976.7    0.00 
  60    5:10   0.00   54.0    55    1.1   218     2.3   976.8    0.00 
  60    5:20   0.00   54.0    55    1.4   178     2.0   976.9    0.00 
  60    5:30   0.00   53.9    55    0.8   182     1.8   977.0    0.00 
  60    5:40   0.00   53.8    55    0.1   108     0.9   977.1    0.00 
  60    5:50   0.00   53.8    55    1.8    77     3.3   977.3    0.00 
  60    6:00   0.00   54.2    54    0.2    98     1.7   977.4    0.00 
  60    6:10   0.00   54.0    56    0.6   194     2.3   977.4    0.00 
  60    6:20   0.00   54.0    55    2.2   199     2.7   977.5    0.00 
  60    6:30   0.00   54.3    55    1.2   211     1.8   977.6    0.00 
  60    6:40   0.00   54.4    53    0.2   157     0.9   977.7    0.00 
  60    6:50   0.00   54.5    54    1.0   263     2.1   977.9    0.00 
  60    7:00   0.00   54.5    56    0.2   299     0.9   978.1    0.00 
  60    7:10   0.01   54.2    64    0.1   314     0.6   978.2    0.00 
  60    7:20   0.01   54.0    72    0.0     0     0.0   978.3    0.00 
  60    7:30   0.01   52.7    74    2.7   350     5.0   978.5    0.02 
  60    7:40   0.01   51.9    79    1.4    28     3.0   978.6    0.01 
  60    7:50   0.01   51.3    80    3.1    20     5.0   978.9    0.01 
  60    8:00   0.02   50.8    82    2.0    34     4.2   979.0    0.02 
  60    8:10   0.03   50.4    83    1.2    82     2.5   979.0    0.02 
  60    8:20   0.03   50.3    82    0.6    81     2.0   979.0    0.02 
  60    8:30   0.03   50.3    82    0.0     0     0.0   979.1    0.01 
  60    8:40   0.03   50.4    83    0.0     0     0.0   979.3    0.01 
  60    8:50   0.03   50.3    84    1.1    65     2.6   979.4    0.02 
  60    9:00   0.04   50.2    85    1.1    63     2.0   979.6    0.02 
  60    9:10   0.05   50.3    84    1.1    57     2.0   979.7    0.02 
  60    9:20   0.06   50.4    85    0.4    69     1.5   979.7    0.01 
  60    9:30   0.06   50.7    85    0.0   135     0.7   979.7    0.02 
  60    9:40   0.08   50.9    85    0.0    58     0.8   979.8    0.02 
  60    9:50   0.08   51.0    85    0.2    34     1.7   979.9    0.01 
  60   10:00   0.09   51.0    84    1.3   220     4.6   979.9    0.01 
  60   10:10   0.08   51.5    76    4.1   194     8.5   980.0    0.01 
  60   10:20   0.10   51.2    74    5.8   203    10.0   979.9    0.01 
  60   10:30   0.14   51.2    74    6.4   207     9.9   979.8    0.01 
  60   10:40   0.11   51.3    74    4.4   180     8.5   980.0    0.01 
  60   10:50   0.14   51.5    73    4.1   181     6.9   980.0    0.01 
  60   11:00   0.10   51.7    72    4.8   172     7.4   980.2    0.01 
  60   11:10   0.07   51.2    75    5.5   193     9.0   980.4    0.00 
  60   11:20   0.08   51.2    75    3.9   185     5.8   980.4    0.01 
  60   11:30   0.12   51.0    71    6.0   179     8.8   980.3    0.03 
  60   11:40   0.16   51.0    76    5.3   211     8.4   980.1    0.01 
  60   11:50   0.19   50.8    75    5.8   206     8.8   979.8    0.01 
  60   12:00   0.16   51.0    75    7.0   208    10.0   979.8    0.01 
  60   12:10   0.12   50.8    74    7.1   210    10.4   979.8    0.01 
  60   12:20   0.08   50.9    74    4.3   172     8.5   979.7    0.00 
  60   12:30   0.13   51.1    73    2.4   110     6.2   979.6    0.01 
  60   12:40   0.10   51.2    73    1.3    80     4.4   979.8    0.01 
  60   12:50   0.12   51.4    76    0.9    24     3.2   979.7    0.02 
  60   13:00   0.16   50.8    78    2.2    21     3.8   979.6    0.01 
  60   13:10   0.12   50.8    80    2.2     1     3.8   979.5    0.00 
  60   13:20   0.12   50.6    80    1.3    13     2.3   979.4    0.01 
  60   13:30   0.14   50.6    81    2.8   342     4.5   979.4    0.00 
  60   13:40   0.16   50.6    82    2.8   341     4.4   979.3    0.01 
  60   13:50   0.22   50.7    83    4.6   344     6.2   979.0    0.00 
  60   14:00   0.19   50.5    83    4.5   344     6.4   979.0    0.01 
  60   14:10   0.19   50.4    84    4.4   353     6.2   978.9    0.00 
  60   14:20   0.23   50.5    84    3.4     4     6.6   979.1    0.00 
  60   14:30   0.21   50.7    84    4.5     7     6.1   978.7    0.00 
  60   14:40   0.13   50.6    85    3.6     2     5.1   979.0    0.00 
  60   14:50   0.09   50.2    86    3.5     8     5.6   979.1    0.00 
  60   15:00   0.11   50.2    86    2.8    23     5.3   979.2    0.00 
  60   15:10   0.14   50.2    86    3.2    38     4.8   979.1    0.01 
  60   15:20   0.14   50.2    85    1.7    26     2.8   978.9    0.00 
  60   15:30   0.12   50.4    82    0.7   348     1.7   978.8    0.00 
  60   15:40   0.09   50.6    80    0.6   268     1.8   978.7    0.00 
  60   15:50   0.07   51.0    80    0.3    78     1.5   978.9    0.00 
  60   16:00   0.07   50.8    82    1.2    32     3.0   978.5    0.00 
  60   16:10   0.04   50.8    82    0.2    53     0.9   978.4    0.00 
  60   16:20   0.02   50.8    83    1.2   347     3.8   978.6    0.00 
  60   16:30   0.03   50.5    86    3.8     4     5.8   978.4    0.00 
  60   16:40   0.02   50.0    90    5.7   354     8.4   978.7    0.01 
  60   16:50   0.03   49.2    93    4.2   355     5.9   978.6    0.01 

Return to Boyd Deep Canyon Reserve graphs page.


Western Regional Climate Center,wrcc@dri.edu